createdAt,value
2018-06-11T00:00:38.159Z,78.6
2018-06-11T00:01:38.203Z,78.63
2018-06-11T00:02:38.174Z,78.51
2018-06-11T00:03:38.163Z,78.58
2018-06-11T00:04:38.290Z,78.49
2018-06-11T00:05:38.163Z,77.88
2018-06-11T00:06:38.509Z,78.82
2018-06-11T00:07:38.167Z,78.17
2018-06-11T00:08:38.152Z,78
2018-06-11T00:09:38.280Z,78.26
2018-06-11T00:10:38.187Z,78.51
2018-06-11T00:11:38.206Z,78.09
2018-06-11T00:12:38.167Z,77.66
2018-06-11T00:13:38.194Z,78.02
2018-06-11T00:14:38.162Z,78.46
2018-06-11T00:15:38.265Z,78.8
2018-06-11T00:16:38.237Z,79.86
2018-06-11T00:17:38.187Z,79.87
2018-06-11T00:18:38.152Z,78.92
2018-06-11T00:19:38.203Z,79.03
2018-06-11T00:20:38.163Z,78.35
2018-06-11T00:21:38.155Z,79.13
2018-06-11T00:22:38.155Z,78.5
2018-06-11T00:23:38.183Z,80.03
2018-06-11T00:24:38.157Z,79.36
2018-06-11T00:25:38.168Z,79.78
2018-06-11T00:26:38.142Z,79.66
2018-06-11T00:27:38.154Z,78.92
2018-06-11T00:28:38.163Z,78.77
2018-06-11T00:29:38.344Z,78.94
2018-06-11T00:30:38.150Z,78.56
2018-06-11T00:31:38.160Z,78.8
2018-06-11T00:32:38.142Z,79.05
2018-06-11T00:33:39.258Z,79.09
2018-06-11T00:34:38.139Z,79.35
2018-06-11T00:35:40.948Z,79.31
2018-06-11T00:36:38.147Z,79.09
2018-06-11T00:37:38.150Z,79.32
2018-06-11T00:38:38.163Z,79.03
2018-06-11T00:39:38.150Z,79.76
2018-06-11T00:40:38.903Z,79.02
2018-06-11T00:41:38.148Z,79.43
2018-06-11T00:42:38.153Z,78.84
2018-06-11T00:43:38.206Z,80.05
2018-06-11T00:44:38.315Z,79.75
2018-06-11T00:45:38.278Z,79.35
2018-06-11T00:46:38.756Z,79.4
2018-06-11T00:47:40.104Z,79.32
2018-06-11T00:48:38.798Z,79.28
2018-06-11T00:49:38.249Z,79.8
2018-06-11T00:50:38.152Z,79.97
2018-06-11T00:51:38.783Z,79.75
2018-06-11T00:52:38.216Z,80.14
2018-06-11T00:53:38.165Z,79.66
2018-06-11T00:54:38.230Z,80.36
2018-06-11T00:55:38.150Z,79.93
2018-06-11T00:56:38.142Z,79.97
2018-06-11T00:57:38.318Z,80.13
2018-06-11T00:58:38.941Z,79.36
2018-06-11T00:59:38.212Z,79.01
2018-06-11T01:00:38.163Z,78.89
2018-06-11T01:01:38.136Z,78.86
2018-06-11T01:02:38.139Z,79.62
2018-06-11T01:03:38.204Z,78.95
2018-06-11T01:04:38.299Z,79.1
2018-06-11T01:05:38.312Z,78.78
2018-06-11T01:06:38.148Z,78.61
2018-06-11T01:07:38.168Z,78.93
2018-06-11T01:08:38.159Z,78.43
2018-06-11T01:09:38.205Z,79.27
2018-06-11T01:10:38.152Z,78.67
2018-06-11T01:11:38.166Z,78.9
2018-06-11T01:12:38.157Z,78.66
2018-06-11T01:13:38.147Z,78.84
2018-06-11T01:14:38.129Z,78.98
2018-06-11T01:15:38.142Z,79.14
2018-06-11T01:16:38.167Z,80.16
2018-06-11T01:17:38.169Z,79.77
2018-06-11T01:18:38.191Z,80.16
2018-06-11T01:19:38.187Z,79.45
2018-06-11T01:20:38.147Z,79.17
2018-06-11T01:21:38.151Z,79.82
2018-06-11T01:22:38.197Z,79.95
2018-06-11T01:23:38.148Z,80.02
2018-06-11T01:24:38.211Z,79.11
2018-06-11T01:25:38.149Z,79.05
2018-06-11T01:26:38.163Z,79.2
2018-06-11T01:27:38.170Z,79.12
2018-06-11T01:28:38.172Z,78.84
2018-06-11T01:29:38.174Z,79.18
2018-06-11T01:30:38.191Z,79.01
2018-06-11T01:31:38.239Z,79.71
2018-06-11T01:32:38.165Z,79.39
2018-06-11T01:33:38.150Z,79.18
2018-06-11T01:34:38.160Z,79.03
2018-06-11T01:35:38.146Z,79.17
2018-06-11T01:36:38.153Z,79.16
2018-06-11T01:37:38.126Z,80.04
2018-06-11T01:38:38.136Z,80.4
2018-06-11T01:39:38.135Z,80.36
2018-06-11T01:40:38.122Z,79.45
2018-06-11T01:41:38.142Z,79.69
2018-06-11T01:42:38.159Z,80.07
2018-06-11T01:43:38.144Z,80.61
2018-06-11T01:44:38.161Z,80.73
2018-06-11T01:45:38.164Z,80.44
2018-06-11T01:46:38.142Z,80.75
2018-06-11T01:47:38.137Z,80.01
2018-06-11T01:48:40.700Z,80.63
2018-06-11T01:49:43.437Z,80.54
2018-06-11T01:50:41.132Z,80.61
2018-06-11T01:51:41.978Z,80.88
2018-06-11T01:52:38.397Z,80.31
2018-06-11T01:53:41.550Z,80.67
2018-06-11T01:54:38.893Z,80.52
2018-06-11T01:55:40.930Z,80.84
2018-06-11T01:56:49.162Z,80.42
2018-06-11T01:57:47.109Z,80.23
2018-06-11T01:58:38.817Z,80.46
2018-06-11T01:59:38.337Z,80.07
2018-06-11T02:00:38.221Z,80.25
2018-06-11T02:01:38.139Z,80.43
2018-06-11T02:02:38.155Z,80.6
2018-06-11T02:03:38.162Z,79.96
2018-06-11T02:04:38.133Z,80.74
2018-06-11T02:05:38.151Z,80.38
2018-06-11T02:06:38.123Z,80.74
2018-06-11T02:07:38.180Z,80.94
2018-06-11T02:08:38.109Z,80.74
2018-06-11T02:09:38.172Z,80.6
2018-06-11T02:11:38.173Z,80.75
2018-06-11T02:12:38.304Z,81.34
2018-06-11T02:13:38.183Z,81.14
2018-06-11T02:14:38.150Z,80.89
2018-06-11T02:15:38.165Z,81.27
2018-06-11T02:16:38.138Z,80.88
2018-06-11T02:17:38.163Z,80.82
2018-06-11T02:18:38.124Z,80.8
2018-06-11T02:19:38.231Z,80.25
2018-06-11T02:20:38.154Z,80.17
2018-06-11T02:21:38.225Z,80.52
2018-06-11T02:22:38.248Z,80.58
2018-06-11T02:23:38.237Z,80.32
2018-06-11T02:24:38.203Z,80.93
2018-06-11T02:25:38.165Z,80.93
2018-06-11T02:26:38.278Z,81.09
2018-06-11T02:27:38.188Z,80.65
2018-06-11T02:28:38.293Z,81.21
2018-06-11T02:29:38.256Z,80.39
2018-06-11T02:30:38.157Z,81.51
2018-06-11T02:31:38.127Z,81.08
2018-06-11T02:32:38.117Z,81.27
2018-06-11T02:33:38.560Z,81.04
2018-06-11T02:34:38.128Z,80.62
2018-06-11T02:35:38.128Z,81.13
2018-06-11T02:36:38.138Z,81.31
2018-06-11T02:37:38.128Z,81.36
2018-06-11T02:38:38.158Z,81.54
2018-06-11T02:39:38.145Z,81.46
2018-06-11T02:40:38.191Z,81.25
2018-06-11T02:41:38.127Z,81.32
2018-06-11T02:42:38.111Z,81.41
2018-06-11T02:43:38.138Z,81.59
2018-06-11T02:44:38.124Z,80.88
2018-06-11T02:45:38.121Z,80.67
2018-06-11T02:46:38.125Z,80.89
2018-06-11T02:47:38.130Z,81.7
2018-06-11T02:48:38.142Z,82.59
2018-06-11T02:49:38.127Z,82.11
2018-06-11T02:50:38.108Z,81.97
2018-06-11T02:51:38.096Z,81.98
2018-06-11T02:52:38.131Z,81.67
2018-06-11T02:53:38.112Z,81.13
2018-06-11T02:54:38.113Z,81.17
2018-06-11T02:55:38.134Z,81.53
2018-06-11T02:56:38.117Z,81.74
2018-06-11T02:57:38.112Z,81.3
2018-06-11T02:58:38.170Z,81.27
2018-06-11T02:59:38.128Z,80.98
2018-06-11T03:00:38.131Z,80.67
2018-06-11T03:01:38.108Z,80.91
2018-06-11T03:02:38.109Z,81.23
2018-06-11T03:03:38.167Z,81.1
2018-06-11T03:04:38.117Z,80.8
2018-06-11T03:05:38.123Z,80.73
2018-06-11T03:06:38.099Z,80.81
2018-06-11T03:07:38.180Z,81.3
2018-06-11T03:08:38.137Z,82.19
2018-06-11T03:09:38.095Z,81.53
2018-06-11T03:10:38.190Z,81.87
2018-06-11T03:11:38.143Z,81.85
2018-06-11T03:12:38.117Z,82.01
2018-06-11T03:13:38.108Z,82.02
2018-06-11T03:14:38.288Z,82.01
2018-06-11T03:15:38.179Z,81.87
2018-06-11T03:16:38.109Z,82.26
2018-06-11T03:17:38.185Z,82.32
2018-06-11T03:18:38.101Z,81.72
2018-06-11T03:19:38.108Z,82.41
2018-06-11T03:20:38.100Z,83.1
2018-06-11T03:21:38.110Z,83.66
2018-06-11T03:22:38.393Z,82.88
2018-06-11T03:23:38.139Z,82.48
2018-06-11T03:24:38.163Z,82.37
2018-06-11T03:25:38.267Z,82.58
2018-06-11T03:26:38.126Z,82.35
2018-06-11T03:27:38.105Z,81.84
2018-06-11T03:28:39.176Z,82.06
2018-06-11T03:29:38.122Z,82.8
2018-06-11T03:30:38.223Z,82.69
2018-06-11T03:31:38.128Z,82.06
2018-06-11T03:32:38.111Z,82.24
2018-06-11T03:33:38.358Z,82.56
2018-06-11T03:34:38.092Z,82.19
2018-06-11T03:35:38.224Z,81.82
2018-06-11T03:36:38.164Z,82.11
2018-06-11T03:37:38.093Z,81.7
2018-06-11T03:38:38.099Z,81.63
2018-06-11T03:39:38.083Z,81.84
2018-06-11T03:40:38.098Z,81.71
2018-06-11T03:41:38.108Z,81.69
2018-06-11T03:42:38.289Z,81.18
2018-06-11T03:43:38.158Z,81.38
2018-06-11T03:44:38.133Z,81.49
2018-06-11T03:45:38.095Z,81.25
2018-06-11T03:46:38.111Z,81.14
2018-06-11T03:47:38.342Z,80.94
2018-06-11T03:48:38.168Z,81.97
2018-06-11T03:49:38.083Z,81.55
2018-06-11T03:50:38.133Z,81.15
2018-06-11T03:51:38.279Z,80.95
2018-06-11T03:52:38.171Z,81.38
2018-06-11T03:53:38.142Z,80.91
2018-06-11T03:54:38.198Z,80.84
2018-06-11T03:55:38.106Z,82.01
2018-06-11T03:56:38.106Z,81.83
2018-06-11T03:57:38.111Z,81.13
2018-06-11T03:58:38.090Z,81.65
2018-06-11T03:59:38.103Z,81.9
2018-06-11T04:00:38.081Z,81.98
2018-06-11T04:01:38.088Z,81.32
2018-06-11T04:02:38.152Z,81.27
2018-06-11T04:03:38.094Z,81.28
2018-06-11T04:04:38.097Z,81.47
2018-06-11T04:05:38.105Z,81.4
2018-06-11T04:06:38.087Z,81.85
2018-06-11T04:07:38.122Z,82.15
2018-06-11T04:08:38.156Z,81.82
2018-06-11T04:09:38.101Z,81.47
2018-06-11T04:10:38.137Z,81.72
2018-06-11T04:11:38.096Z,82.22
2018-06-11T04:12:38.104Z,82.3
2018-06-11T04:13:38.086Z,82.47
2018-06-11T04:14:38.095Z,82.58
2018-06-11T04:15:38.121Z,81.95
2018-06-11T04:16:38.110Z,82.06
2018-06-11T04:17:38.092Z,82.28
2018-06-11T04:18:38.078Z,82.68
2018-06-11T04:19:38.272Z,82.59
2018-06-11T04:20:38.166Z,82.44
2018-06-11T04:21:38.187Z,81.78
2018-06-11T04:22:38.294Z,82.33
2018-06-11T04:23:38.128Z,82.26
2018-06-11T04:24:38.103Z,81.82
2018-06-11T04:25:38.112Z,81.93
2018-06-11T04:26:38.078Z,82.59
2018-06-11T04:27:38.117Z,82.27
2018-06-11T04:28:38.123Z,81.84
2018-06-11T04:29:38.134Z,81.87
2018-06-11T04:30:38.173Z,81.92
2018-06-11T04:31:38.088Z,81.62
2018-06-11T04:32:38.089Z,81.8
2018-06-11T04:33:38.157Z,81.86
2018-06-11T04:34:38.093Z,81.66
2018-06-11T04:35:38.287Z,81.42
2018-06-11T04:36:38.084Z,81.71
2018-06-11T04:37:38.290Z,80.99
2018-06-11T04:38:38.145Z,81.35
2018-06-11T04:39:38.130Z,81.21
2018-06-11T04:40:38.239Z,81.26
2018-06-11T04:41:38.123Z,81.19
2018-06-11T04:42:38.115Z,81.68
2018-06-11T04:43:38.431Z,81.87
2018-06-11T04:44:38.076Z,81.3
2018-06-11T04:45:38.065Z,81.35
2018-06-11T04:46:38.122Z,81.28
2018-06-11T04:47:38.080Z,81.19
2018-06-11T04:48:38.195Z,81.08
2018-06-11T04:49:38.250Z,81.37
2018-06-11T04:50:38.142Z,81.62
2018-06-11T04:51:38.091Z,80.96
2018-06-11T04:52:38.086Z,81.13
2018-06-11T04:53:38.076Z,81.65
2018-06-11T04:54:38.241Z,81.73
2018-06-11T04:55:38.090Z,81.53
2018-06-11T04:56:38.075Z,81.87
2018-06-11T04:57:38.066Z,81.67
2018-06-11T04:58:38.099Z,81.6
2018-06-11T04:59:38.089Z,81.8
2018-06-11T05:00:38.091Z,81.06
2018-06-11T05:01:38.290Z,80.89
2018-06-11T05:02:38.066Z,80.76
2018-06-11T05:03:38.075Z,80.58
2018-06-11T05:04:38.102Z,80.51
2018-06-11T05:05:38.103Z,80.91
2018-06-11T05:06:38.093Z,81.15
2018-06-11T05:07:38.090Z,80.64
2018-06-11T05:08:38.064Z,80.4
2018-06-11T05:09:38.404Z,81
2018-06-11T05:10:38.075Z,80.93
2018-06-11T05:11:38.063Z,80.73
2018-06-11T05:12:38.078Z,80.36
2018-06-11T05:13:38.069Z,80.13
2018-06-11T05:14:38.080Z,80.26
2018-06-11T05:15:38.077Z,80.4
2018-06-11T05:16:38.053Z,80.66
2018-06-11T05:17:38.070Z,80.46
2018-06-11T05:18:38.084Z,80.47
2018-06-11T05:19:38.088Z,80.48
2018-06-11T05:20:38.168Z,80.88
2018-06-11T05:21:38.123Z,80.68
2018-06-11T05:22:38.131Z,81.01
2018-06-11T05:23:38.088Z,80.49
2018-06-11T05:24:38.072Z,80.86
2018-06-11T05:25:38.056Z,80.29
2018-06-11T05:26:38.076Z,80.63
2018-06-11T05:27:38.133Z,80.22
2018-06-11T05:28:38.636Z,80.44
2018-06-11T05:29:38.064Z,80.5
2018-06-11T05:30:38.213Z,80.12
2018-06-11T05:31:38.165Z,80.39
2018-06-11T05:32:38.050Z,80.7
2018-06-11T05:33:38.323Z,80.93
2018-06-11T05:34:38.117Z,81.33
2018-06-11T05:35:38.077Z,80.92
2018-06-11T05:36:38.094Z,80.58
2018-06-11T05:37:38.108Z,80.62
2018-06-11T05:38:38.101Z,80.47
2018-06-11T05:39:38.103Z,81.07
2018-06-11T05:40:38.123Z,80.59
2018-06-11T05:41:38.260Z,80.49
2018-06-11T05:42:38.172Z,80.3
2018-06-11T05:43:38.130Z,80.14
2018-06-11T05:44:38.125Z,80.11
2018-06-11T05:45:38.080Z,79.95
2018-06-11T05:46:38.132Z,79.53
2018-06-11T05:47:38.090Z,79.79
2018-06-11T05:48:38.060Z,80.2
2018-06-11T05:49:38.091Z,80.25
2018-06-11T05:50:38.067Z,80.13
2018-06-11T05:51:38.091Z,80.03
2018-06-11T05:52:38.059Z,78.36
2018-06-11T05:53:38.059Z,79.13
2018-06-11T05:54:38.044Z,79.75
2018-06-11T05:55:38.048Z,80.02
2018-06-11T05:56:38.080Z,79.4
2018-06-11T05:57:38.095Z,79.14
2018-06-11T05:58:38.092Z,79.09
2018-06-11T05:59:38.069Z,78.69
2018-06-11T06:00:38.112Z,78.95
2018-06-11T06:01:38.163Z,79.75
2018-06-11T06:02:38.100Z,79.47
2018-06-11T06:03:38.072Z,79.27
2018-06-11T06:04:38.269Z,79.09
2018-06-11T06:05:38.044Z,79.03
2018-06-11T06:06:38.104Z,78.95
2018-06-11T06:07:38.104Z,79.18
2018-06-11T06:08:38.086Z,78.88
2018-06-11T06:09:38.171Z,78.35
2018-06-11T06:10:38.121Z,78.24
2018-06-11T06:11:38.160Z,78.5
2018-06-11T06:12:38.047Z,78.69
2018-06-11T06:13:38.091Z,78.5
2018-06-11T06:14:38.210Z,78.22
2018-06-11T06:15:38.073Z,78.1
2018-06-11T06:16:38.079Z,78.21
2018-06-11T06:17:38.129Z,78.21
2018-06-11T06:18:38.072Z,78.2
2018-06-11T06:19:38.074Z,77.75
2018-06-11T06:20:38.031Z,77.77
2018-06-11T06:21:38.046Z,77.89
2018-06-11T06:22:38.041Z,77.7
2018-06-11T06:23:38.033Z,77.81
2018-06-11T06:24:38.042Z,78.24
2018-06-11T06:25:38.041Z,78.73
2018-06-11T06:26:38.067Z,78
2018-06-11T06:27:38.059Z,77.97
2018-06-11T06:28:38.052Z,78.73
2018-06-11T06:29:38.057Z,78.24
2018-06-11T06:30:38.098Z,78.57
2018-06-11T06:31:38.074Z,78.38
2018-06-11T06:32:38.435Z,78.74
2018-06-11T06:33:38.083Z,78.69
2018-06-11T06:34:38.095Z,78.85
2018-06-11T06:35:38.047Z,78.93
2018-06-11T06:36:38.034Z,78.38
2018-06-11T06:37:38.031Z,78.76
2018-06-11T06:38:38.045Z,78.7
2018-06-11T06:39:38.104Z,78.7
2018-06-11T06:40:38.032Z,79.3
2018-06-11T06:41:38.040Z,78.37
2018-06-11T06:42:38.069Z,78.34
2018-06-11T06:43:48.092Z,78.15
2018-06-11T06:44:38.051Z,78.11
2018-06-11T06:45:38.039Z,78.63
2018-06-11T06:46:38.142Z,78.66
2018-06-11T06:47:38.169Z,78.42
2018-06-11T06:48:38.089Z,78.68
2018-06-11T06:49:38.069Z,78.44
2018-06-11T06:50:38.062Z,77.17
2018-06-11T06:51:38.110Z,77.33
2018-06-11T06:52:38.215Z,77.35
2018-06-11T06:53:38.135Z,77.35
2018-06-11T06:54:38.048Z,77.27
2018-06-11T06:55:38.128Z,77.61
2018-06-11T06:56:38.030Z,77.64
2018-06-11T06:57:38.069Z,77.53
2018-06-11T06:58:38.062Z,77.9
2018-06-11T06:59:38.049Z,78.36
2018-06-11T07:00:38.093Z,77.97
2018-06-11T07:01:38.059Z,77.78
2018-06-11T07:02:38.059Z,77.62
2018-06-11T07:03:38.053Z,77.54
2018-06-11T07:04:38.180Z,77.3
2018-06-11T07:05:38.065Z,77.45
2018-06-11T07:06:38.030Z,77.34
2018-06-11T07:07:38.043Z,77.33
2018-06-11T07:08:38.021Z,77.63
2018-06-11T07:09:38.081Z,78.04
2018-06-11T07:10:38.049Z,78.06
2018-06-11T07:11:38.039Z,77.33
2018-06-11T07:12:38.032Z,77.19
2018-06-11T07:13:38.059Z,77.2
2018-06-11T07:14:38.342Z,77.19
2018-06-11T07:15:38.045Z,77.24
2018-06-11T07:16:38.041Z,77.24
2018-06-11T07:17:38.031Z,77.38
2018-06-11T07:18:38.051Z,77.33
2018-06-11T07:19:38.070Z,77.2
2018-06-11T07:20:38.030Z,77.17
2018-06-11T07:21:38.018Z,77.2
2018-06-11T07:22:38.166Z,77.56
2018-06-11T07:23:38.039Z,77.55
2018-06-11T07:24:38.037Z,77.73
2018-06-11T07:25:38.031Z,77.8
2018-06-11T07:26:38.059Z,77.97
2018-06-11T07:27:38.128Z,77.92
2018-06-11T07:28:38.053Z,77.67
2018-06-11T07:29:38.056Z,77.86
2018-06-11T07:30:38.045Z,77.99
2018-06-11T07:31:38.179Z,77.67
2018-06-11T07:32:38.062Z,77.62
2018-06-11T07:33:38.083Z,77.23
2018-06-11T07:34:38.015Z,78.07
2018-06-11T07:35:38.049Z,77.39
2018-06-11T07:36:38.053Z,77.4
2018-06-11T07:37:38.038Z,77.4
2018-06-11T07:38:38.034Z,77.27
2018-06-11T07:39:38.065Z,77.42
2018-06-11T07:40:38.031Z,77.15
2018-06-11T07:41:38.022Z,76.66
2018-06-11T07:42:38.022Z,76.84
2018-06-11T07:43:38.029Z,76.6
2018-06-11T07:44:38.041Z,77.12
2018-06-11T07:45:38.059Z,75.72
2018-06-11T07:46:38.054Z,75.75
2018-06-11T07:47:38.062Z,75.42
2018-06-11T07:48:38.026Z,75.81
2018-06-11T07:49:38.046Z,75.8
2018-06-11T07:50:38.067Z,75.07
2018-06-11T07:51:38.026Z,75.05
2018-06-11T07:52:38.212Z,75.36
2018-06-11T07:53:38.060Z,75.42
2018-06-11T07:54:38.053Z,75.26
2018-06-11T07:55:38.024Z,75.89
2018-06-11T07:56:38.084Z,75.93
2018-06-11T07:57:38.098Z,76.16
2018-06-11T07:58:38.101Z,76.05
2018-06-11T07:59:38.108Z,75.56
2018-06-11T08:00:38.033Z,75.33
2018-06-11T08:01:38.045Z,75.44
2018-06-11T08:02:38.008Z,75.28
2018-06-11T08:03:38.129Z,75.57
2018-06-11T08:04:38.037Z,75.64
2018-06-11T08:05:38.056Z,75.29
2018-06-11T08:06:38.037Z,75.61
2018-06-11T08:07:38.019Z,76.15
2018-06-11T08:08:38.072Z,75.55
2018-06-11T08:09:38.093Z,75.27
2018-06-11T08:10:38.045Z,75.41
2018-06-11T08:11:38.068Z,76.16
2018-06-11T08:12:38.025Z,75.82
2018-06-11T08:13:38.087Z,76.68
2018-06-11T08:14:38.466Z,75.33
2018-06-11T08:15:38.031Z,75.9
2018-06-11T08:16:38.035Z,75.43
2018-06-11T08:17:37.992Z,75.75
2018-06-11T08:18:38.036Z,75
2018-06-11T08:19:38.025Z,75.93
2018-06-11T08:20:38.024Z,75.13
2018-06-11T08:21:38.017Z,75.63
2018-06-11T08:22:38.029Z,75.09
2018-06-11T08:23:38.009Z,75.15
2018-06-11T08:24:38.005Z,75.29
2018-06-11T08:25:38.043Z,75.17
2018-06-11T08:26:38.016Z,75.34
2018-06-11T08:27:38.034Z,75.26
2018-06-11T08:28:38.019Z,76.29
2018-06-11T08:29:37.982Z,75.18
2018-06-11T08:30:38.052Z,74.94
2018-06-11T08:31:37.998Z,75.13
2018-06-11T08:32:38.022Z,75.85
2018-06-11T08:33:38.064Z,75.37
2018-06-11T08:34:38.005Z,75.36
2018-06-11T08:35:38.145Z,75.32
2018-06-11T08:36:38.008Z,75.32
2018-06-11T08:37:38.072Z,74.87
2018-06-11T08:38:38.126Z,74.49
2018-06-11T08:39:38.056Z,74.59
2018-06-11T08:40:38.032Z,73.9
2018-06-11T08:41:38.179Z,74.37
2018-06-11T08:42:37.991Z,73.65
2018-06-11T08:43:38.255Z,73.61
2018-06-11T08:44:38.027Z,74.03
2018-06-11T08:45:37.995Z,74.45
2018-06-11T08:46:38.001Z,73.76
2018-06-11T08:47:37.983Z,73.47
2018-06-11T08:48:37.982Z,73.87
2018-06-11T08:49:37.990Z,74.09
2018-06-11T08:50:37.991Z,74.25
2018-06-11T08:51:37.998Z,73.93
2018-06-11T08:52:38.002Z,73.83
2018-06-11T08:53:37.997Z,70.79
2018-06-11T08:54:38.018Z,71.85
2018-06-11T08:55:37.997Z,72.28
2018-06-11T08:56:38.005Z,72.19
2018-06-11T08:57:38.018Z,71.78
2018-06-11T08:58:37.999Z,72.06
2018-06-11T08:59:38.038Z,71.82
2018-06-11T09:00:38.000Z,71.74
2018-06-11T09:01:38.250Z,70.46
2018-06-11T09:02:38.012Z,71.12
2018-06-11T09:03:37.996Z,70.12
2018-06-11T09:04:38.018Z,70.71
2018-06-11T09:05:38.025Z,71.06
2018-06-11T09:06:38.051Z,70.6
2018-06-11T09:07:38.016Z,70.93
2018-06-11T09:08:38.148Z,71.3
2018-06-11T09:09:38.018Z,71
2018-06-11T09:10:37.979Z,71.49
2018-06-11T09:11:38.022Z,71.96
2018-06-11T09:12:38.038Z,71.16
2018-06-11T09:13:38.036Z,71.2
2018-06-11T09:14:37.983Z,71.17
2018-06-11T09:15:37.982Z,71.39
2018-06-11T09:16:37.994Z,70.59
2018-06-11T09:17:38.013Z,70.47
2018-06-11T09:18:37.984Z,70.21
2018-06-11T09:19:38.034Z,70.72
2018-06-11T09:20:38.080Z,69.68
2018-06-11T09:21:38.061Z,70.65
2018-06-11T09:22:38.046Z,69.94
2018-06-11T09:23:38.008Z,69.64
2018-06-11T09:24:38.165Z,69.79
2018-06-11T09:25:37.998Z,68.86
2018-06-11T09:26:37.979Z,69.44
2018-06-11T09:27:38.015Z,68.69
2018-06-11T09:28:38.004Z,68.81
2018-06-11T09:29:38.025Z,69.35
2018-06-11T09:30:38.193Z,70.37
2018-06-11T09:31:38.014Z,69.63
2018-06-11T09:32:38.021Z,68.78
2018-06-11T09:33:38.051Z,67.81
2018-06-11T09:34:38.194Z,68.54
2018-06-11T09:35:38.004Z,68.82
2018-06-11T09:36:37.995Z,68.93
2018-06-11T09:37:38.035Z,68.89
2018-06-11T09:38:38.010Z,69.14
2018-06-11T09:39:38.154Z,69.14
2018-06-11T09:40:37.982Z,67.83
2018-06-11T09:41:38.037Z,68.19
2018-06-11T09:42:37.996Z,68.08
2018-06-11T09:43:38.151Z,66.6
2018-06-11T09:44:37.996Z,66.77
2018-06-11T09:45:37.980Z,66.66
2018-06-11T09:46:38.039Z,67.34
2018-06-11T09:47:38.036Z,67.96
2018-06-11T09:48:37.990Z,67.88
2018-06-11T09:49:37.993Z,68.28
2018-06-11T09:50:37.987Z,68.37
2018-06-11T09:51:38.065Z,67.27
2018-06-11T09:52:37.983Z,67.08
2018-06-11T09:53:38.003Z,66.82
2018-06-11T09:54:38.132Z,66.75
2018-06-11T09:55:38.004Z,67.11
2018-06-11T09:56:38.010Z,66.73
2018-06-11T09:57:38.013Z,66.66
2018-06-11T09:58:37.981Z,67.27
2018-06-11T09:59:37.993Z,66.6
2018-06-11T10:00:37.977Z,66.93
2018-06-11T10:01:37.979Z,66.99
2018-06-11T10:02:38.028Z,66.04
2018-06-11T10:03:38.023Z,66.42
2018-06-11T10:04:38.006Z,66.71
2018-06-11T10:05:37.984Z,66.6
2018-06-11T10:06:38.000Z,66.89
2018-06-11T10:07:38.028Z,66.88
2018-06-11T10:08:37.987Z,66.57
2018-06-11T10:09:37.997Z,66.54
2018-06-11T10:10:37.977Z,67.19
2018-06-11T10:11:37.969Z,66.84
2018-06-11T10:12:37.985Z,66.23
2018-06-11T10:13:38.011Z,65.75
2018-06-11T10:14:37.980Z,65.95
2018-06-11T10:15:37.987Z,65.86
2018-06-11T10:16:37.995Z,65.39
2018-06-11T10:17:38.018Z,65.43
2018-06-11T10:18:38.003Z,64.87
2018-06-11T10:19:38.007Z,65.26
2018-06-11T10:20:38.094Z,65.3
2018-06-11T10:21:38.008Z,65.59
2018-06-11T10:22:38.177Z,65.88
2018-06-11T10:23:37.980Z,65.96
2018-06-11T10:24:37.977Z,66.42
2018-06-11T10:25:37.999Z,66.17
2018-06-11T10:26:38.330Z,66.43
2018-06-11T10:27:38.025Z,66.17
2018-06-11T10:28:38.062Z,65.39
2018-06-11T10:29:37.982Z,65.86
2018-06-11T10:30:37.983Z,65.27
2018-06-11T10:31:37.974Z,65.04
2018-06-11T10:32:37.973Z,65.17
2018-06-11T10:33:38.039Z,65.28
2018-06-11T10:34:37.977Z,65.13
2018-06-11T10:35:38.024Z,65.35
2018-06-11T10:36:38.013Z,65.16
2018-06-11T10:37:37.972Z,65.38
2018-06-11T10:38:38.024Z,65.65
2018-06-11T10:39:37.975Z,64.83
2018-06-11T10:40:38.000Z,65.25
2018-06-11T10:41:38.059Z,65.15
2018-06-11T10:42:37.972Z,65.22
2018-06-11T10:43:38.074Z,65.19
2018-06-11T10:44:38.089Z,64.99
2018-06-11T10:45:37.981Z,65.43
2018-06-11T10:46:38.013Z,66.06
2018-06-11T10:47:38.040Z,65.42
2018-06-11T10:48:38.018Z,64.44
2018-06-11T10:49:38.097Z,65.33
2018-06-11T10:50:37.996Z,65.67
2018-06-11T10:51:37.986Z,65.3
2018-06-11T10:52:37.962Z,65.59
2018-06-11T10:53:38.211Z,65.57
2018-06-11T10:54:38.045Z,64.31
2018-06-11T10:55:38.013Z,64.24
2018-06-11T10:56:37.987Z,64.58
2018-06-11T10:57:37.962Z,64.95
2018-06-11T10:58:38.154Z,64.71
2018-06-11T10:59:37.988Z,63.73
2018-06-11T11:00:37.968Z,64.36
2018-06-11T11:01:37.976Z,63.17
2018-06-11T11:02:37.981Z,63.72
2018-06-11T11:03:38.021Z,63.65
2018-06-11T11:04:38.032Z,64.59
2018-06-11T11:05:38.241Z,62.86
2018-06-11T11:06:38.118Z,63.28
2018-06-11T11:07:37.983Z,63.97
2018-06-11T11:08:37.945Z,64.73
2018-06-11T11:09:38.109Z,63.48
2018-06-11T11:10:37.951Z,63.66
2018-06-11T11:11:37.950Z,63.45
2018-06-11T11:12:38.044Z,63.66
2018-06-11T11:13:37.967Z,63.56
2018-06-11T11:14:37.961Z,63.55
2018-06-11T11:15:37.971Z,63.42
2018-06-11T11:16:37.965Z,63.4
2018-06-11T11:17:37.968Z,62.81
2018-06-11T11:18:37.966Z,63.42
2018-06-11T11:19:37.963Z,63.15
2018-06-11T11:20:37.955Z,63.32
2018-06-11T11:21:37.958Z,63.77
2018-06-11T11:22:37.953Z,63.55
2018-06-11T11:23:37.969Z,63.46
2018-06-11T11:24:37.959Z,63.05
2018-06-11T11:25:37.963Z,62.92
2018-06-11T11:26:37.956Z,63.33
2018-06-11T11:27:37.961Z,62.91
2018-06-11T11:28:37.961Z,62.54
2018-06-11T11:29:38.010Z,62.37
2018-06-11T11:30:38.145Z,62.04
2018-06-11T11:31:38.071Z,62.24
2018-06-11T11:32:38.119Z,61.77
2018-06-11T11:33:37.975Z,61.14
2018-06-11T11:34:38.139Z,61.25
2018-06-11T11:35:37.971Z,60.79
2018-06-11T11:36:38.118Z,60.81
2018-06-11T11:37:37.946Z,61.48
2018-06-11T11:38:37.965Z,60.73
2018-06-11T11:39:37.981Z,60.73
2018-06-11T11:40:37.945Z,61.04
2018-06-11T11:41:37.967Z,61.12
2018-06-11T11:42:37.978Z,61.69
2018-06-11T11:43:37.984Z,60.87
2018-06-11T11:44:37.963Z,60.97
2018-06-11T11:45:38.009Z,60.23
2018-06-11T11:46:37.966Z,60.7
2018-06-11T11:47:37.993Z,61.02
2018-06-11T11:48:37.975Z,61.46
2018-06-11T11:49:37.992Z,60.95
2018-06-11T11:50:37.974Z,61.23
2018-06-11T11:51:38.018Z,60.96
2018-06-11T11:52:37.989Z,60.98
2018-06-11T11:53:38.013Z,60.25
2018-06-11T11:54:37.938Z,61.46
2018-06-11T11:55:37.940Z,61.09
2018-06-11T11:56:37.991Z,61.64
2018-06-11T11:57:37.980Z,59.89
2018-06-11T11:58:37.965Z,60.27
2018-06-11T11:59:38.001Z,60.57
2018-06-11T12:00:38.360Z,61.06
2018-06-11T12:01:37.978Z,61.27
2018-06-11T12:02:37.975Z,60.8
2018-06-11T12:03:37.970Z,60.54
2018-06-11T12:04:37.966Z,60.56
2018-06-11T12:05:38.014Z,60.98
2018-06-11T12:06:37.964Z,61.24
2018-06-11T12:07:38.007Z,61.2
2018-06-11T12:08:37.970Z,61.69
2018-06-11T12:09:37.981Z,60.99
2018-06-11T12:10:37.970Z,61.15
2018-06-11T12:11:38.035Z,60.53
2018-06-11T12:12:37.968Z,61.24
2018-06-11T12:13:37.962Z,61.25
2018-06-11T12:14:37.958Z,61.45
2018-06-11T12:15:37.974Z,60.73
2018-06-11T12:16:37.982Z,61.16
2018-06-11T12:17:37.980Z,61.27
2018-06-11T12:18:38.107Z,60.99
2018-06-11T12:19:38.131Z,61.11
2018-06-11T12:20:37.990Z,61.61
2018-06-11T12:21:37.959Z,60.53
2018-06-11T12:22:37.952Z,60.77
2018-06-11T12:23:37.944Z,60.86
2018-06-11T12:24:38.235Z,60.94
2018-06-11T12:25:37.972Z,61.12
2018-06-11T12:26:37.952Z,61.25
2018-06-11T12:27:37.955Z,61.36
2018-06-11T12:28:37.952Z,61.5
2018-06-11T12:29:37.966Z,61.18
2018-06-11T12:30:37.953Z,61.93
2018-06-11T12:31:37.966Z,62.03
2018-06-11T12:32:37.968Z,61.8
2018-06-11T12:33:37.961Z,62.02
2018-06-11T12:34:37.950Z,61.9
2018-06-11T12:35:37.932Z,61.55
2018-06-11T12:36:37.961Z,61.19
2018-06-11T12:37:37.943Z,61
2018-06-11T12:38:37.944Z,60.96
2018-06-11T12:39:38.020Z,60.88
2018-06-11T12:40:37.958Z,61.29
2018-06-11T12:41:37.943Z,61.06
2018-06-11T12:42:37.946Z,61.24
2018-06-11T12:43:38.050Z,60.57
2018-06-11T12:44:37.954Z,60.35
2018-06-11T12:45:37.959Z,60.34
2018-06-11T12:46:37.951Z,60.69
2018-06-11T12:47:37.988Z,60.45
2018-06-11T12:48:38.021Z,60.35
2018-06-11T12:49:37.947Z,60.64
2018-06-11T12:50:37.975Z,60.65
2018-06-11T12:51:37.953Z,60.72
2018-06-11T12:52:38.025Z,60.48
2018-06-11T12:53:37.952Z,60.42
2018-06-11T12:54:37.980Z,61.06
2018-06-11T12:55:37.977Z,60.66
2018-06-11T12:56:37.995Z,61.19